sensor_id;sensor_type;location;lat;lon;timestamp;P1;durP1;ratioP1;P2;durP2;ratioP2
6531;SDS011;3299;42.004;24.868;2023-02-18T00:01:54;6.50;;;3.80;;
6531;SDS011;3299;42.004;24.868;2023-02-18T00:04:20;4.22;;;3.45;;
6531;SDS011;3299;42.004;24.868;2023-02-18T00:06:45;5.20;;;3.83;;
6531;SDS011;3299;42.004;24.868;2023-02-18T00:09:10;5.55;;;3.75;;
6531;SDS011;3299;42.004;24.868;2023-02-18T00:11:36;4.63;;;4.15;;
6531;SDS011;3299;42.004;24.868;2023-02-18T00:14:04;3.63;;;3.22;;
6531;SDS011;3299;42.004;24.868;2023-02-18T00:16:31;4.55;;;3.35;;
6531;SDS011;3299;42.004;24.868;2023-02-18T00:18:58;4.95;;;3.35;;
6531;SDS011;3299;42.004;24.868;2023-02-18T00:21:26;4.35;;;3.45;;
6531;SDS011;3299;42.004;24.868;2023-02-18T00:23:52;6.28;;;3.72;;
6531;SDS011;3299;42.004;24.868;2023-02-18T00:26:18;3.72;;;3.42;;
6531;SDS011;3299;42.004;24.868;2023-02-18T00:28:44;4.60;;;3.13;;
6531;SDS011;3299;42.004;24.868;2023-02-18T00:31:13;4.35;;;3.50;;
6531;SDS011;3299;42.004;24.868;2023-02-18T00:33:42;4.80;;;3.63;;
6531;SDS011;3299;42.004;24.868;2023-02-18T00:36:08;4.15;;;3.40;;
6531;SDS011;3299;42.004;24.868;2023-02-18T00:38:36;3.42;;;3.13;;
6531;SDS011;3299;42.004;24.868;2023-02-18T00:41:02;3.80;;;3.20;;
6531;SDS011;3299;42.004;24.868;2023-02-18T00:43:28;3.60;;;3.28;;
6531;SDS011;3299;42.004;24.868;2023-02-18T00:45:54;4.85;;;3.28;;
6531;SDS011;3299;42.004;24.868;2023-02-18T00:48:19;4.18;;;3.40;;
6531;SDS011;3299;42.004;24.868;2023-02-18T00:50:45;4.07;;;3.65;;
6531;SDS011;3299;42.004;24.868;2023-02-18T00:53:11;5.10;;;3.85;;
6531;SDS011;3299;42.004;24.868;2023-02-18T00:55:44;4.57;;;3.15;;
6531;SDS011;3299;42.004;24.868;2023-02-18T00:58:12;3.78;;;3.30;;
6531;SDS011;3299;42.004;24.868;2023-02-18T01:00:37;3.28;;;3.03;;
6531;SDS011;3299;42.004;24.868;2023-02-18T01:03:03;5.35;;;2.97;;
6531;SDS011;3299;42.004;24.868;2023-02-18T01:05:31;3.70;;;3.40;;
6531;SDS011;3299;42.004;24.868;2023-02-18T01:07:57;3.85;;;3.20;;
6531;SDS011;3299;42.004;24.868;2023-02-18T01:10:22;6.50;;;3.40;;
6531;SDS011;3299;42.004;24.868;2023-02-18T01:12:48;4.72;;;3.30;;
6531;SDS011;3299;42.004;24.868;2023-02-18T01:15:16;5.35;;;4.15;;
6531;SDS011;3299;42.004;24.868;2023-02-18T01:17:41;4.20;;;3.40;;
6531;SDS011;3299;42.004;24.868;2023-02-18T01:20:07;4.07;;;3.30;;
6531;SDS011;3299;42.004;24.868;2023-02-18T01:22:34;5.35;;;3.42;;
6531;SDS011;3299;42.004;24.868;2023-02-18T01:24:59;3.63;;;2.88;;
6531;SDS011;3299;42.004;24.868;2023-02-18T01:27:25;3.50;;;3.10;;
6531;SDS011;3299;42.004;24.868;2023-02-18T01:29:51;3.75;;;3.38;;
6531;SDS011;3299;42.004;24.868;2023-02-18T01:32:16;4.45;;;3.45;;
6531;SDS011;3299;42.004;24.868;2023-02-18T01:34:41;4.13;;;2.95;;
6531;SDS011;3299;42.004;24.868;2023-02-18T01:37:07;4.15;;;3.33;;
6531;SDS011;3299;42.004;24.868;2023-02-18T01:39:32;3.83;;;2.95;;
6531;SDS011;3299;42.004;24.868;2023-02-18T01:41:58;3.63;;;3.15;;
6531;SDS011;3299;42.004;24.868;2023-02-18T01:44:27;3.30;;;3.00;;
6531;SDS011;3299;42.004;24.868;2023-02-18T01:46:53;3.90;;;3.45;;
6531;SDS011;3299;42.004;24.868;2023-02-18T01:49:30;3.30;;;2.95;;
6531;SDS011;3299;42.004;24.868;2023-02-18T01:51:59;4.20;;;3.30;;
6531;SDS011;3299;42.004;24.868;2023-02-18T01:54:38;4.28;;;2.22;;
6531;SDS011;3299;42.004;24.868;2023-02-18T01:57:21;3.15;;;2.80;;
6531;SDS011;3299;42.004;24.868;2023-02-18T02:00:00;3.30;;;2.72;;
6531;SDS011;3299;42.004;24.868;2023-02-18T02:02:31;4.45;;;2.60;;
6531;SDS011;3299;42.004;24.868;2023-02-18T02:04:59;4.05;;;3.10;;
6531;SDS011;3299;42.004;24.868;2023-02-18T02:07:25;3.53;;;3.17;;
6531;SDS011;3299;42.004;24.868;2023-02-18T02:09:52;3.10;;;2.88;;
6531;SDS011;3299;42.004;24.868;2023-02-18T02:16:00;3.90;;;3.08;;
6531;SDS011;3299;42.004;24.868;2023-02-18T02:34:39;3.67;;;2.50;;
6531;SDS011;3299;42.004;24.868;2023-02-18T02:42:45;4.22;;;2.97;;
6531;SDS011;3299;42.004;24.868;2023-02-18T02:52:57;2.95;;;2.05;;
6531;SDS011;3299;42.004;24.868;2023-02-18T02:55:26;3.35;;;2.45;;
6531;SDS011;3299;42.004;24.868;2023-02-18T02:57:53;3.25;;;2.60;;
6531;SDS011;3299;42.004;24.868;2023-02-18T03:00:27;5.00;;;2.90;;
6531;SDS011;3299;42.004;24.868;2023-02-18T03:03:09;2.72;;;2.30;;
6531;SDS011;3299;42.004;24.868;2023-02-18T03:11:37;4.18;;;2.55;;
6531;SDS011;3299;42.004;24.868;2023-02-18T03:14:18;2.80;;;2.55;;
6531;SDS011;3299;42.004;24.868;2023-02-18T03:17:02;3.22;;;2.60;;
6531;SDS011;3299;42.004;24.868;2023-02-18T03:22:20;2.75;;;2.55;;
6531;SDS011;3299;42.004;24.868;2023-02-18T03:24:52;3.22;;;2.90;;
6531;SDS011;3299;42.004;24.868;2023-02-18T03:27:21;4.57;;;3.08;;
6531;SDS011;3299;42.004;24.868;2023-02-18T03:29:51;3.67;;;2.95;;
6531;SDS011;3299;42.004;24.868;2023-02-18T03:32:21;2.60;;;2.40;;
6531;SDS011;3299;42.004;24.868;2023-02-18T03:34:50;2.60;;;2.40;;
6531;SDS011;3299;42.004;24.868;2023-02-18T03:37:20;3.67;;;2.78;;
6531;SDS011;3299;42.004;24.868;2023-02-18T03:39:47;3.33;;;3.00;;
6531;SDS011;3299;42.004;24.868;2023-02-18T03:42:17;10.75;;;4.40;;
6531;SDS011;3299;42.004;24.868;2023-02-18T03:44:43;3.38;;;3.03;;
6531;SDS011;3299;42.004;24.868;2023-02-18T03:47:09;3.33;;;2.70;;
6531;SDS011;3299;42.004;24.868;2023-02-18T03:49:35;2.63;;;2.40;;
6531;SDS011;3299;42.004;24.868;2023-02-18T03:52:00;4.25;;;2.90;;
6531;SDS011;3299;42.004;24.868;2023-02-18T03:54:26;3.50;;;3.13;;
6531;SDS011;3299;42.004;24.868;2023-02-18T03:56:51;5.60;;;3.83;;
6531;SDS011;3299;42.004;24.868;2023-02-18T03:59:17;4.68;;;3.60;;
6531;SDS011;3299;42.004;24.868;2023-02-18T04:01:42;5.85;;;3.05;;
6531;SDS011;3299;42.004;24.868;2023-02-18T04:04:07;3.58;;;2.60;;
6531;SDS011;3299;42.004;24.868;2023-02-18T04:06:33;5.50;;;3.67;;
6531;SDS011;3299;42.004;24.868;2023-02-18T04:08:58;4.68;;;3.30;;
6531;SDS011;3299;42.004;24.868;2023-02-18T04:11:32;5.50;;;3.47;;
6531;SDS011;3299;42.004;24.868;2023-02-18T04:13:59;5.15;;;2.97;;
6531;SDS011;3299;42.004;24.868;2023-02-18T04:16:25;3.80;;;2.55;;
6531;SDS011;3299;42.004;24.868;2023-02-18T04:18:50;3.65;;;2.70;;
6531;SDS011;3299;42.004;24.868;2023-02-18T04:21:15;2.97;;;2.60;;
6531;SDS011;3299;42.004;24.868;2023-02-18T04:23:41;2.42;;;2.22;;
6531;SDS011;3299;42.004;24.868;2023-02-18T04:26:06;6.25;;;2.55;;
6531;SDS011;3299;42.004;24.868;2023-02-18T04:28:32;3.95;;;2.67;;
6531;SDS011;3299;42.004;24.868;2023-02-18T04:30:57;2.42;;;2.20;;
6531;SDS011;3299;42.004;24.868;2023-02-18T04:33:22;2.55;;;2.28;;
6531;SDS011;3299;42.004;24.868;2023-02-18T04:35:48;2.28;;;2.08;;
6531;SDS011;3299;42.004;24.868;2023-02-18T04:38:13;2.97;;;2.22;;
6531;SDS011;3299;42.004;24.868;2023-02-18T04:40:39;2.42;;;2.22;;
6531;SDS011;3299;42.004;24.868;2023-02-18T04:43:04;1.70;;;1.60;;
6531;SDS011;3299;42.004;24.868;2023-02-18T04:45:29;2.30;;;1.98;;
6531;SDS011;3299;42.004;24.868;2023-02-18T04:47:55;1.92;;;1.83;;
6531;SDS011;3299;42.004;24.868;2023-02-18T04:50:20;2.33;;;2.15;;
6531;SDS011;3299;42.004;24.868;2023-02-18T04:52:47;3.83;;;2.20;;
6531;SDS011;3299;42.004;24.868;2023-02-18T04:55:13;4.22;;;1.70;;
6531;SDS011;3299;42.004;24.868;2023-02-18T04:57:38;3.50;;;1.90;;
6531;SDS011;3299;42.004;24.868;2023-02-18T05:00:07;2.42;;;1.83;;
6531;SDS011;3299;42.004;24.868;2023-02-18T05:02:34;2.90;;;2.10;;
6531;SDS011;3299;42.004;24.868;2023-02-18T05:05:02;1.80;;;1.50;;
6531;SDS011;3299;42.004;24.868;2023-02-18T05:07:28;5.68;;;2.00;;
6531;SDS011;3299;42.004;24.868;2023-02-18T05:09:53;1.90;;;1.80;;
6531;SDS011;3299;42.004;24.868;2023-02-18T05:12:18;2.10;;;1.90;;
6531;SDS011;3299;42.004;24.868;2023-02-18T05:14:44;2.40;;;1.77;;
6531;SDS011;3299;42.004;24.868;2023-02-18T05:17:09;2.25;;;2.05;;
6531;SDS011;3299;42.004;24.868;2023-02-18T05:19:34;3.22;;;2.55;;
6531;SDS011;3299;42.004;24.868;2023-02-18T05:22:00;2.42;;;2.20;;
6531;SDS011;3299;42.004;24.868;2023-02-18T05:24:25;4.22;;;2.03;;
6531;SDS011;3299;42.004;24.868;2023-02-18T05:26:51;4.55;;;2.15;;
6531;SDS011;3299;42.004;24.868;2023-02-18T05:29:16;3.55;;;2.30;;
6531;SDS011;3299;42.004;24.868;2023-02-18T05:31:42;2.35;;;2.20;;
6531;SDS011;3299;42.004;24.868;2023-02-18T05:34:07;3.65;;;2.05;;
6531;SDS011;3299;42.004;24.868;2023-02-18T05:36:33;4.00;;;2.25;;
6531;SDS011;3299;42.004;24.868;2023-02-18T05:38:58;3.47;;;2.33;;
6531;SDS011;3299;42.004;24.868;2023-02-18T05:41:23;3.40;;;3.10;;
6531;SDS011;3299;42.004;24.868;2023-02-18T05:43:49;2.70;;;2.25;;
6531;SDS011;3299;42.004;24.868;2023-02-18T05:46:33;2.28;;;2.00;;
6531;SDS011;3299;42.004;24.868;2023-02-18T05:48:58;2.25;;;2.00;;
6531;SDS011;3299;42.004;24.868;2023-02-18T05:51:24;5.45;;;2.60;;
6531;SDS011;3299;42.004;24.868;2023-02-18T05:53:49;3.67;;;2.17;;
6531;SDS011;3299;42.004;24.868;2023-02-18T05:56:15;3.38;;;2.20;;
6531;SDS011;3299;42.004;24.868;2023-02-18T05:58:40;2.13;;;1.92;;
6531;SDS011;3299;42.004;24.868;2023-02-18T06:01:05;4.05;;;2.03;;
6531;SDS011;3299;42.004;24.868;2023-02-18T06:03:31;4.65;;;2.20;;
6531;SDS011;3299;42.004;24.868;2023-02-18T06:05:56;2.83;;;2.30;;
6531;SDS011;3299;42.004;24.868;2023-02-18T06:08:21;5.47;;;2.15;;
6531;SDS011;3299;42.004;24.868;2023-02-18T06:10:47;3.22;;;2.30;;
6531;SDS011;3299;42.004;24.868;2023-02-18T06:13:12;4.82;;;2.25;;
6531;SDS011;3299;42.004;24.868;2023-02-18T06:15:38;2.67;;;2.20;;
6531;SDS011;3299;42.004;24.868;2023-02-18T06:18:04;2.72;;;1.88;;
6531;SDS011;3299;42.004;24.868;2023-02-18T06:20:30;2.13;;;1.92;;
6531;SDS011;3299;42.004;24.868;2023-02-18T06:22:56;2.10;;;1.90;;
6531;SDS011;3299;42.004;24.868;2023-02-18T06:25:21;2.70;;;2.13;;
6531;SDS011;3299;42.004;24.868;2023-02-18T06:27:47;5.40;;;2.63;;
6531;SDS011;3299;42.004;24.868;2023-02-18T06:30:12;2.90;;;2.47;;
6531;SDS011;3299;42.004;24.868;2023-02-18T06:32:38;1.73;;;1.63;;
6531;SDS011;3299;42.004;24.868;2023-02-18T06:35:03;2.92;;;2.28;;
6531;SDS011;3299;42.004;24.868;2023-02-18T06:37:29;3.25;;;1.95;;
6531;SDS011;3299;42.004;24.868;2023-02-18T06:39:54;2.50;;;1.98;;
6531;SDS011;3299;42.004;24.868;2023-02-18T06:42:20;2.60;;;2.30;;
6531;SDS011;3299;42.004;24.868;2023-02-18T06:44:45;5.18;;;2.30;;
6531;SDS011;3299;42.004;24.868;2023-02-18T06:47:10;4.97;;;2.70;;
6531;SDS011;3299;42.004;24.868;2023-02-18T06:49:36;3.30;;;2.10;;
6531;SDS011;3299;42.004;24.868;2023-02-18T06:52:03;5.32;;;3.05;;
6531;SDS011;3299;42.004;24.868;2023-02-18T06:54:28;4.90;;;2.95;;
6531;SDS011;3299;42.004;24.868;2023-02-18T06:56:54;5.00;;;3.45;;
6531;SDS011;3299;42.004;24.868;2023-02-18T06:59:19;5.63;;;3.40;;
6531;SDS011;3299;42.004;24.868;2023-02-18T07:01:44;4.43;;;2.75;;
6531;SDS011;3299;42.004;24.868;2023-02-18T07:04:10;3.67;;;2.50;;
6531;SDS011;3299;42.004;24.868;2023-02-18T07:06:35;4.15;;;2.40;;
6531;SDS011;3299;42.004;24.868;2023-02-18T07:09:01;4.28;;;2.47;;
6531;SDS011;3299;42.004;24.868;2023-02-18T07:11:26;2.03;;;1.85;;
6531;SDS011;3299;42.004;24.868;2023-02-18T07:13:51;3.53;;;3.17;;
6531;SDS011;3299;42.004;24.868;2023-02-18T07:16:17;3.50;;;2.45;;
6531;SDS011;3299;42.004;24.868;2023-02-18T07:18:42;7.00;;;2.95;;
6531;SDS011;3299;42.004;24.868;2023-02-18T07:21:08;5.68;;;3.30;;
6531;SDS011;3299;42.004;24.868;2023-02-18T07:23:33;3.63;;;2.42;;
6531;SDS011;3299;42.004;24.868;2023-02-18T07:26:05;4.18;;;2.05;;
6531;SDS011;3299;42.004;24.868;2023-02-18T07:28:32;4.15;;;2.28;;
6531;SDS011;3299;42.004;24.868;2023-02-18T07:30:57;2.83;;;1.98;;
6531;SDS011;3299;42.004;24.868;2023-02-18T07:33:23;3.50;;;2.38;;
6531;SDS011;3299;42.004;24.868;2023-02-18T07:35:52;4.55;;;3.28;;
6531;SDS011;3299;42.004;24.868;2023-02-18T07:38:21;6.80;;;4.00;;
6531;SDS011;3299;42.004;24.868;2023-02-18T07:40:47;12.88;;;5.88;;
6531;SDS011;3299;42.004;24.868;2023-02-18T07:43:13;10.30;;;5.38;;
6531;SDS011;3299;42.004;24.868;2023-02-18T07:45:39;8.80;;;5.05;;
6531;SDS011;3299;42.004;24.868;2023-02-18T07:48:05;5.50;;;3.63;;
6531;SDS011;3299;42.004;24.868;2023-02-18T07:50:30;4.35;;;2.97;;
6531;SDS011;3299;42.004;24.868;2023-02-18T07:53:01;3.75;;;2.65;;
6531;SDS011;3299;42.004;24.868;2023-02-18T07:55:27;6.55;;;3.38;;
6531;SDS011;3299;42.004;24.868;2023-02-18T07:58:12;3.75;;;3.25;;
6531;SDS011;3299;42.004;24.868;2023-02-18T08:00:45;5.82;;;3.53;;
6531;SDS011;3299;42.004;24.868;2023-02-18T08:03:13;6.80;;;3.33;;
6531;SDS011;3299;42.004;24.868;2023-02-18T08:05:43;7.55;;;4.05;;
6531;SDS011;3299;42.004;24.868;2023-02-18T08:08:11;4.05;;;3.55;;
6531;SDS011;3299;42.004;24.868;2023-02-18T08:10:38;6.63;;;4.18;;
6531;SDS011;3299;42.004;24.868;2023-02-18T08:13:03;23.73;;;11.68;;
6531;SDS011;3299;42.004;24.868;2023-02-18T08:15:29;30.13;;;15.35;;
6531;SDS011;3299;42.004;24.868;2023-02-18T08:17:54;19.38;;;10.65;;
6531;SDS011;3299;42.004;24.868;2023-02-18T08:20:20;11.00;;;6.90;;
6531;SDS011;3299;42.004;24.868;2023-02-18T08:22:48;11.73;;;5.35;;
6531;SDS011;3299;42.004;24.868;2023-02-18T08:25:14;11.80;;;4.90;;
6531;SDS011;3299;42.004;24.868;2023-02-18T08:27:39;6.90;;;4.55;;
6531;SDS011;3299;42.004;24.868;2023-02-18T08:30:05;12.07;;;6.20;;
6531;SDS011;3299;42.004;24.868;2023-02-18T08:32:31;10.15;;;6.63;;
6531;SDS011;3299;42.004;24.868;2023-02-18T08:34:56;12.35;;;5.82;;
6531;SDS011;3299;42.004;24.868;2023-02-18T08:37:22;7.93;;;5.15;;
6531;SDS011;3299;42.004;24.868;2023-02-18T08:39:47;11.25;;;5.22;;
6531;SDS011;3299;42.004;24.868;2023-02-18T08:42:13;7.85;;;4.53;;
6531;SDS011;3299;42.004;24.868;2023-02-18T08:44:38;10.27;;;4.35;;
6531;SDS011;3299;42.004;24.868;2023-02-18T08:47:04;8.95;;;5.05;;
6531;SDS011;3299;42.004;24.868;2023-02-18T08:49:29;12.48;;;6.43;;
6531;SDS011;3299;42.004;24.868;2023-02-18T08:51:55;13.68;;;7.28;;
6531;SDS011;3299;42.004;24.868;2023-02-18T08:54:20;9.45;;;4.85;;
6531;SDS011;3299;42.004;24.868;2023-02-18T08:56:46;9.15;;;5.15;;
6531;SDS011;3299;42.004;24.868;2023-02-18T08:59:11;10.07;;;4.82;;
6531;SDS011;3299;42.004;24.868;2023-02-18T09:01:37;8.05;;;4.68;;
6531;SDS011;3299;42.004;24.868;2023-02-18T09:04:02;8.45;;;4.82;;
6531;SDS011;3299;42.004;24.868;2023-02-18T09:06:28;12.55;;;5.65;;
6531;SDS011;3299;42.004;24.868;2023-02-18T09:08:54;13.75;;;6.80;;
6531;SDS011;3299;42.004;24.868;2023-02-18T09:11:19;11.55;;;5.75;;
6531;SDS011;3299;42.004;24.868;2023-02-18T09:13:45;6.32;;;4.32;;
6531;SDS011;3299;42.004;24.868;2023-02-18T09:16:12;7.60;;;4.28;;
6531;SDS011;3299;42.004;24.868;2023-02-18T09:18:42;6.72;;;4.78;;
6531;SDS011;3299;42.004;24.868;2023-02-18T09:21:08;5.10;;;3.47;;
6531;SDS011;3299;42.004;24.868;2023-02-18T09:23:36;11.60;;;4.78;;
6531;SDS011;3299;42.004;24.868;2023-02-18T09:26:03;6.05;;;4.57;;
6531;SDS011;3299;42.004;24.868;2023-02-18T09:28:30;5.80;;;4.00;;
6531;SDS011;3299;42.004;24.868;2023-02-18T09:30:55;8.95;;;5.07;;
6531;SDS011;3299;42.004;24.868;2023-02-18T09:33:20;4.30;;;3.33;;
6531;SDS011;3299;42.004;24.868;2023-02-18T09:35:46;5.18;;;2.90;;
6531;SDS011;3299;42.004;24.868;2023-02-18T09:38:14;5.05;;;3.80;;
6531;SDS011;3299;42.004;24.868;2023-02-18T09:40:43;5.32;;;4.03;;
6531;SDS011;3299;42.004;24.868;2023-02-18T09:43:20;4.85;;;3.40;;
6531;SDS011;3299;42.004;24.868;2023-02-18T09:45:47;5.35;;;3.90;;
6531;SDS011;3299;42.004;24.868;2023-02-18T09:48:13;8.63;;;3.97;;
6531;SDS011;3299;42.004;24.868;2023-02-18T09:50:39;4.57;;;3.90;;
6531;SDS011;3299;42.004;24.868;2023-02-18T09:53:04;6.57;;;3.80;;
6531;SDS011;3299;42.004;24.868;2023-02-18T09:55:30;7.47;;;4.10;;
6531;SDS011;3299;42.004;24.868;2023-02-18T09:58:06;10.65;;;5.40;;
6531;SDS011;3299;42.004;24.868;2023-02-18T10:00:41;5.97;;;3.63;;
6531;SDS011;3299;42.004;24.868;2023-02-18T10:03:12;3.95;;;3.25;;
6531;SDS011;3299;42.004;24.868;2023-02-18T10:05:42;5.93;;;3.30;;
6531;SDS011;3299;42.004;24.868;2023-02-18T10:08:18;6.32;;;4.28;;
6531;SDS011;3299;42.004;24.868;2023-02-18T10:10:48;8.85;;;4.35;;
6531;SDS011;3299;42.004;24.868;2023-02-18T10:13:18;4.97;;;3.58;;
6531;SDS011;3299;42.004;24.868;2023-02-18T10:15:45;4.70;;;3.88;;
6531;SDS011;3299;42.004;24.868;2023-02-18T10:18:31;3.83;;;3.47;;
6531;SDS011;3299;42.004;24.868;2023-02-18T10:21:08;10.25;;;4.57;;
6531;SDS011;3299;42.004;24.868;2023-02-18T10:23:40;8.90;;;4.65;;
6531;SDS011;3299;42.004;24.868;2023-02-18T10:26:14;6.57;;;3.95;;
6531;SDS011;3299;42.004;24.868;2023-02-18T10:28:41;7.90;;;3.70;;
6531;SDS011;3299;42.004;24.868;2023-02-18T10:31:09;4.57;;;3.65;;
6531;SDS011;3299;42.004;24.868;2023-02-18T10:33:44;4.80;;;3.80;;
6531;SDS011;3299;42.004;24.868;2023-02-18T10:41:47;17.15;;;7.20;;
6531;SDS011;3299;42.004;24.868;2023-02-18T10:52:22;16.90;;;5.15;;
6531;SDS011;3299;42.004;24.868;2023-02-18T10:57:22;8.13;;;3.80;;
6531;SDS011;3299;42.004;24.868;2023-02-18T11:00:03;8.20;;;4.05;;
6531;SDS011;3299;42.004;24.868;2023-02-18T11:02:41;10.80;;;5.93;;
6531;SDS011;3299;42.004;24.868;2023-02-18T11:05:23;8.40;;;4.35;;
6531;SDS011;3299;42.004;24.868;2023-02-18T11:07:52;7.45;;;4.70;;
6531;SDS011;3299;42.004;24.868;2023-02-18T11:10:31;7.45;;;4.20;;
6531;SDS011;3299;42.004;24.868;2023-02-18T11:13:00;13.43;;;5.93;;
6531;SDS011;3299;42.004;24.868;2023-02-18T11:15:30;8.77;;;4.07;;
6531;SDS011;3299;42.004;24.868;2023-02-18T11:17:57;6.97;;;3.60;;
6531;SDS011;3299;42.004;24.868;2023-02-18T11:20:36;9.10;;;3.10;;
6531;SDS011;3299;42.004;24.868;2023-02-18T11:25:35;7.65;;;2.50;;
6531;SDS011;3299;42.004;24.868;2023-02-18T11:28:06;7.70;;;2.55;;
6531;SDS011;3299;42.004;24.868;2023-02-18T11:30:58;6.55;;;3.05;;
6531;SDS011;3299;42.004;24.868;2023-02-18T11:38:47;3.53;;;2.90;;
6531;SDS011;3299;42.004;24.868;2023-02-18T11:41:19;5.25;;;2.75;;
6531;SDS011;3299;42.004;24.868;2023-02-18T11:43:53;4.13;;;2.45;;
6531;SDS011;3299;42.004;24.868;2023-02-18T11:46:19;5.93;;;3.00;;
6531;SDS011;3299;42.004;24.868;2023-02-18T11:48:49;7.80;;;3.28;;
6531;SDS011;3299;42.004;24.868;2023-02-18T11:51:32;4.15;;;3.05;;
6531;SDS011;3299;42.004;24.868;2023-02-18T11:54:03;6.57;;;3.60;;
6531;SDS011;3299;42.004;24.868;2023-02-18T11:56:34;5.63;;;2.05;;
6531;SDS011;3299;42.004;24.868;2023-02-18T11:59:01;2.28;;;2.08;;
6531;SDS011;3299;42.004;24.868;2023-02-18T12:04:10;2.38;;;1.70;;
6531;SDS011;3299;42.004;24.868;2023-02-18T12:06:37;2.00;;;1.80;;
6531;SDS011;3299;42.004;24.868;2023-02-18T12:09:46;4.35;;;2.50;;
6531;SDS011;3299;42.004;24.868;2023-02-18T12:12:11;3.75;;;2.42;;
6531;SDS011;3299;42.004;24.868;2023-02-18T12:14:41;5.55;;;2.90;;
6531;SDS011;3299;42.004;24.868;2023-02-18T12:25:23;4.00;;;2.65;;
6531;SDS011;3299;42.004;24.868;2023-02-18T12:28:31;2.80;;;1.60;;
6531;SDS011;3299;42.004;24.868;2023-02-18T12:33:45;4.15;;;2.60;;
6531;SDS011;3299;42.004;24.868;2023-02-18T12:38:53;4.53;;;1.98;;
6531;SDS011;3299;42.004;24.868;2023-02-18T12:44:14;4.10;;;2.90;;
6531;SDS011;3299;42.004;24.868;2023-02-18T12:52:49;4.18;;;3.55;;
6531;SDS011;3299;42.004;24.868;2023-02-18T12:58:15;7.15;;;3.35;;
6531;SDS011;3299;42.004;24.868;2023-02-18T13:11:44;3.35;;;2.65;;
6531;SDS011;3299;42.004;24.868;2023-02-18T13:14:14;3.60;;;2.92;;
6531;SDS011;3299;42.004;24.868;2023-02-18T13:16:43;3.95;;;3.03;;
6531;SDS011;3299;42.004;24.868;2023-02-18T13:21:57;7.45;;;3.05;;
6531;SDS011;3299;42.004;24.868;2023-02-18T13:24:31;4.60;;;2.97;;
6531;SDS011;3299;42.004;24.868;2023-02-18T13:27:15;7.60;;;3.55;;
6531;SDS011;3299;42.004;24.868;2023-02-18T13:32:28;3.33;;;3.00;;
6531;SDS011;3299;42.004;24.868;2023-02-18T13:38:01;4.70;;;3.63;;
6531;SDS011;3299;42.004;24.868;2023-02-18T13:40:44;6.82;;;3.50;;
6531;SDS011;3299;42.004;24.868;2023-02-18T13:46:09;4.03;;;3.65;;
6531;SDS011;3299;42.004;24.868;2023-02-18T13:54:02;7.30;;;3.90;;
6531;SDS011;3299;42.004;24.868;2023-02-18T13:56:38;6.32;;;4.25;;
6531;SDS011;3299;42.004;24.868;2023-02-18T13:59:14;3.80;;;3.50;;
6531;SDS011;3299;42.004;24.868;2023-02-18T14:23:02;6.20;;;5.30;;
6531;SDS011;3299;42.004;24.868;2023-02-18T14:25:40;6.28;;;5.40;;
6531;SDS011;3299;42.004;24.868;2023-02-18T14:31:00;5.97;;;5.38;;
6531;SDS011;3299;42.004;24.868;2023-02-18T14:33:29;9.27;;;5.47;;
6531;SDS011;3299;42.004;24.868;2023-02-18T14:44:03;5.28;;;4.30;;
6531;SDS011;3299;42.004;24.868;2023-02-18T14:46:50;12.75;;;5.80;;
6531;SDS011;3299;42.004;24.868;2023-02-18T14:52:09;7.25;;;5.70;;
6531;SDS011;3299;42.004;24.868;2023-02-18T14:54:57;12.02;;;5.32;;
6531;SDS011;3299;42.004;24.868;2023-02-18T14:57:30;8.30;;;5.45;;
6531;SDS011;3299;42.004;24.868;2023-02-18T14:59:59;9.43;;;6.00;;
6531;SDS011;3299;42.004;24.868;2023-02-18T15:02:26;10.73;;;6.95;;
6531;SDS011;3299;42.004;24.868;2023-02-18T15:04:57;11.60;;;6.07;;
6531;SDS011;3299;42.004;24.868;2023-02-18T15:07:36;12.85;;;6.95;;
6531;SDS011;3299;42.004;24.868;2023-02-18T15:10:01;7.57;;;5.20;;
6531;SDS011;3299;42.004;24.868;2023-02-18T15:12:27;6.25;;;4.45;;
6531;SDS011;3299;42.004;24.868;2023-02-18T15:14:53;7.90;;;4.57;;
6531;SDS011;3299;42.004;24.868;2023-02-18T15:17:25;4.20;;;3.80;;
6531;SDS011;3299;42.004;24.868;2023-02-18T15:19:55;5.47;;;4.10;;
6531;SDS011;3299;42.004;24.868;2023-02-18T15:22:25;6.30;;;4.05;;
6531;SDS011;3299;42.004;24.868;2023-02-18T15:24:55;5.70;;;3.50;;
6531;SDS011;3299;42.004;24.868;2023-02-18T15:27:28;4.25;;;3.58;;
6531;SDS011;3299;42.004;24.868;2023-02-18T15:30:03;6.45;;;4.80;;
6531;SDS011;3299;42.004;24.868;2023-02-18T15:32:37;8.82;;;4.10;;
6531;SDS011;3299;42.004;24.868;2023-02-18T15:35:11;5.13;;;4.35;;
6531;SDS011;3299;42.004;24.868;2023-02-18T15:37:42;7.97;;;3.63;;
6531;SDS011;3299;42.004;24.868;2023-02-18T15:40:15;6.03;;;3.80;;
6531;SDS011;3299;42.004;24.868;2023-02-18T15:42:41;3.95;;;3.10;;
6531;SDS011;3299;42.004;24.868;2023-02-18T15:48:19;4.68;;;3.50;;
6531;SDS011;3299;42.004;24.868;2023-02-18T15:50:52;4.65;;;2.67;;
6531;SDS011;3299;42.004;24.868;2023-02-18T15:53:19;4.60;;;3.13;;
6531;SDS011;3299;42.004;24.868;2023-02-18T15:55:46;5.30;;;2.97;;
6531;SDS011;3299;42.004;24.868;2023-02-18T16:00:47;3.72;;;2.42;;
6531;SDS011;3299;42.004;24.868;2023-02-18T16:05:44;3.17;;;2.85;;
6531;SDS011;3299;42.004;24.868;2023-02-18T16:08:13;2.47;;;2.28;;
6531;SDS011;3299;42.004;24.868;2023-02-18T16:10:42;5.82;;;2.50;;
6531;SDS011;3299;42.004;24.868;2023-02-18T16:13:10;2.65;;;2.45;;
6531;SDS011;3299;42.004;24.868;2023-02-18T16:15:39;2.47;;;2.28;;
6531;SDS011;3299;42.004;24.868;2023-02-18T16:18:16;3.67;;;2.75;;
6531;SDS011;3299;42.004;24.868;2023-02-18T16:20:51;4.70;;;3.10;;
6531;SDS011;3299;42.004;24.868;2023-02-18T16:23:25;2.90;;;2.70;;
6531;SDS011;3299;42.004;24.868;2023-02-18T16:25:55;2.63;;;2.42;;
6531;SDS011;3299;42.004;24.868;2023-02-18T16:28:25;3.88;;;2.65;;
6531;SDS011;3299;42.004;24.868;2023-02-18T16:30:55;3.40;;;2.53;;
6531;SDS011;3299;42.004;24.868;2023-02-18T16:33:20;3.45;;;2.92;;
6531;SDS011;3299;42.004;24.868;2023-02-18T16:35:46;4.13;;;2.30;;
6531;SDS011;3299;42.004;24.868;2023-02-18T16:38:19;3.78;;;2.08;;
6531;SDS011;3299;42.004;24.868;2023-02-18T16:40:46;2.40;;;2.15;;
6531;SDS011;3299;42.004;24.868;2023-02-18T16:43:16;4.97;;;3.72;;
6531;SDS011;3299;42.004;24.868;2023-02-18T16:45:49;4.40;;;3.42;;
6531;SDS011;3299;42.004;24.868;2023-02-18T16:48:18;7.90;;;5.35;;
6531;SDS011;3299;42.004;24.868;2023-02-18T16:50:50;21.80;;;12.70;;
6531;SDS011;3299;42.004;24.868;2023-02-18T16:53:16;24.55;;;13.20;;
6531;SDS011;3299;42.004;24.868;2023-02-18T16:55:41;18.50;;;12.25;;
6531;SDS011;3299;42.004;24.868;2023-02-18T16:58:07;21.98;;;13.70;;
6531;SDS011;3299;42.004;24.868;2023-02-18T17:00:32;17.10;;;10.95;;
6531;SDS011;3299;42.004;24.868;2023-02-18T17:02:58;13.65;;;8.77;;
6531;SDS011;3299;42.004;24.868;2023-02-18T17:05:25;14.25;;;7.78;;
6531;SDS011;3299;42.004;24.868;2023-02-18T17:07:53;16.42;;;10.65;;
6531;SDS011;3299;42.004;24.868;2023-02-18T17:10:19;13.30;;;7.20;;
6531;SDS011;3299;42.004;24.868;2023-02-18T17:12:44;16.58;;;10.10;;
6531;SDS011;3299;42.004;24.868;2023-02-18T17:17:47;17.35;;;10.05;;
6531;SDS011;3299;42.004;24.868;2023-02-18T17:20:13;28.17;;;17.45;;
6531;SDS011;3299;42.004;24.868;2023-02-18T17:22:39;6.78;;;5.75;;
6531;SDS011;3299;42.004;24.868;2023-02-18T17:25:11;12.20;;;6.97;;
6531;SDS011;3299;42.004;24.868;2023-02-18T17:27:41;8.20;;;4.93;;
6531;SDS011;3299;42.004;24.868;2023-02-18T17:30:07;8.40;;;4.90;;
6531;SDS011;3299;42.004;24.868;2023-02-18T17:32:33;5.28;;;4.63;;
6531;SDS011;3299;42.004;24.868;2023-02-18T17:34:58;25.50;;;12.15;;
6531;SDS011;3299;42.004;24.868;2023-02-18T17:37:24;12.02;;;6.78;;
6531;SDS011;3299;42.004;24.868;2023-02-18T17:39:49;11.13;;;5.13;;
6531;SDS011;3299;42.004;24.868;2023-02-18T17:42:14;10.32;;;4.20;;
6531;SDS011;3299;42.004;24.868;2023-02-18T17:44:40;9.27;;;4.15;;
6531;SDS011;3299;42.004;24.868;2023-02-18T17:47:06;5.82;;;3.90;;
6531;SDS011;3299;42.004;24.868;2023-02-18T17:49:31;9.35;;;5.25;;
6531;SDS011;3299;42.004;24.868;2023-02-18T17:51:57;7.68;;;4.10;;
6531;SDS011;3299;42.004;24.868;2023-02-18T17:54:22;10.48;;;5.50;;